Time;durP1;ratioP1;P1;durP2;ratioP2;P2;SDS_P1;SDS_P2;PMS_P1;PMS_P2;Temp;Humidity;BMP_temperature;BMP_pressure;BME280_temperature;BME280_humidity;BME280_pressure;Samples;Min_cycle;Max_cycle;Signal;HPM_P1;HPM_P2
2022/01/19 00:00:05;;;;;;;157.68;75.95;;;;;;;;;;5117054;28;20138;-81
2022/01/19 00:02:31;;;;;;;149.73;74.80;;;;;;;;;;5117714;28;20057;-80
2022/01/19 00:04:56;;;;;;;148.05;74.22;;;;;;;;;;5106188;28;20023;-78
2022/01/19 00:07:21;;;;;;;110.70;56.85;;;;;;;;;;5095751;28;20462;-78
2022/01/19 00:09:47;;;;;;;67.88;36.40;;;;;;;;;;5094700;28;20380;-78
2022/01/19 00:12:12;;;;;;;65.53;36.08;;;;;;;;;;5102921;28;20056;-79
2022/01/19 00:14:37;;;;;;;73.45;37.53;;;;;;;;;;5093953;28;20020;-80
2022/01/19 00:17:03;;;;;;;97.28;49.78;;;;;;;;;;5095898;28;20097;-79
2022/01/19 00:19:28;;;;;;;127.20;60.10;;;;;;;;;;5095594;28;20030;-77
2022/01/19 00:21:53;;;;;;;108.03;46.30;;;;;;;;;;5095145;28;20038;-77
2022/01/19 00:24:19;;;;;;;98.82;44.92;;;;;;;;;;5093643;28;20024;-78
2022/01/19 00:26:44;;;;;;;82.93;41.05;;;;;;;;;;5094860;28;20024;-79
2022/01/19 00:29:09;;;;;;;80.72;39.92;;;;;;;;;;5093488;28;20518;-79
2022/01/19 00:31:35;;;;;;;55.45;25.42;;;;;;;;;;5102789;28;20522;-78
2022/01/19 00:34:00;;;;;;;289.15;118.93;;;;;;;;;;5114950;28;20474;-79
2022/01/19 00:36:26;;;;;;;68.88;33.90;;;;;;;;;;5113565;28;20034;-79
2022/01/19 00:38:52;;;;;;;64.90;28.77;;;;;;;;;;5115851;27;20023;-78
2022/01/19 00:41:17;;;;;;;55.60;26.52;;;;;;;;;;5114202;28;20573;-78
2022/01/19 00:43:43;;;;;;;44.17;25.30;;;;;;;;;;5115218;27;20389;-80
2022/01/19 00:46:08;;;;;;;61.63;31.17;;;;;;;;;;5117228;27;20031;-79
2022/01/19 00:48:34;;;;;;;56.28;28.50;;;;;;;;;;5117351;27;20023;-79
2022/01/19 00:50:59;;;;;;;83.65;39.50;;;;;;;;;;5119244;27;20067;-78
2022/01/19 00:53:25;;;;;;;55.35;27.25;;;;;;;;;;5119192;27;20019;-79
2022/01/19 00:55:51;;;;;;;108.55;51.67;;;;;;;;;;5117324;27;20026;-80
2022/01/19 00:58:16;;;;;;;79.10;35.85;;;;;;;;;;5117558;27;20019;-78
2022/01/19 01:00:41;;;;;;;61.40;30.50;;;;;;;;;;5117214;27;20065;-78
2022/01/19 01:03:07;;;;;;;59.40;28.70;;;;;;;;;;5117257;27;20023;-80
2022/01/19 01:05:33;;;;;;;49.58;25.25;;;;;;;;;;5119062;27;20052;-79
2022/01/19 01:07:58;;;;;;;44.72;22.95;;;;;;;;;;5116904;27;20058;-79
2022/01/19 01:10:23;;;;;;;50.25;24.75;;;;;;;;;;5116988;27;20033;-78
2022/01/19 01:12:51;;;;;;;58.30;25.50;;;;;;;;;;5116870;27;20043;-79
2022/01/19 01:15:29;;;;;;;122.63;59.97;;;;;;;;;;5116674;27;20023;-77
2022/01/19 01:20:31;;;;;;;41.58;17.83;;;;;;;;;;5118565;27;20405;-79
2022/01/19 01:22:56;;;;;;;30.83;13.23;;;;;;;;;;5116583;27;20050;-78
2022/01/19 01:25:22;;;;;;;89.43;42.22;;;;;;;;;;5118927;27;20031;-79
2022/01/19 01:27:48;;;;;;;29.20;12.65;;;;;;;;;;5116883;27;20374;-80
2022/01/19 01:30:13;;;;;;;27.95;16.35;;;;;;;;;;5116590;27;20034;-79
2022/01/19 01:32:39;;;;;;;42.53;21.77;;;;;;;;;;5118499;27;20093;-81
2022/01/19 01:35:05;;;;;;;80.85;37.38;;;;;;;;;;5106362;27;20053;-78
2022/01/19 01:37:30;;;;;;;83.38;40.53;;;;;;;;;;5096361;28;20034;-79
2022/01/19 01:39:56;;;;;;;59.22;27.88;;;;;;;;;;5112541;27;20102;-79
2022/01/19 01:42:23;;;;;;;45.75;22.02;;;;;;;;;;5116332;27;20027;-78
2022/01/19 01:44:51;;;;;;;39.53;20.58;;;;;;;;;;5117225;27;20019;-78
2022/01/19 01:47:18;;;;;;;33.10;16.55;;;;;;;;;;5118516;27;20057;-78
2022/01/19 01:54:53;;;;;;;58.53;29.92;;;;;;;;;;5117863;27;20038;-79
2022/01/19 01:57:19;;;;;;;46.45;24.10;;;;;;;;;;5117197;27;20529;-80
2022/01/19 01:59:45;;;;;;;49.35;26.08;;;;;;;;;;5114222;27;20019;-79
2022/01/19 02:02:10;;;;;;;41.72;20.77;;;;;;;;;;5114139;27;20385;-80
2022/01/19 02:04:40;;;;;;;40.53;19.77;;;;;;;;;;5117444;27;20411;-80
2022/01/19 02:09:40;;;;;;;32.38;15.52;;;;;;;;;;5117553;27;20023;-78
2022/01/19 02:23:24;;;;;;;57.20;30.90;;;;;;;;;;5096440;28;20037;-78
2022/01/19 02:25:56;;;;;;;32.25;14.80;;;;;;;;;;5095125;28;20045;-80
2022/01/19 02:36:37;;;;;;;38.35;18.48;;;;;;;;;;5117578;27;20405;-79
2022/01/19 02:41:48;;;;;;;40.22;19.50;;;;;;;;;;5117379;27;20401;-79
2022/01/19 02:44:27;;;;;;;41.45;18.98;;;;;;;;;;5116376;27;20019;-80
2022/01/19 02:49:36;;;;;;;53.58;25.75;;;;;;;;;;5118216;27;20072;-79
2022/01/19 02:52:02;;;;;;;43.25;19.05;;;;;;;;;;5115749;27;20030;-80
2022/01/19 02:54:29;;;;;;;73.65;31.30;;;;;;;;;;5117032;27;20122;-81
2022/01/19 02:56:58;;;;;;;80.50;39.33;;;;;;;;;;5115704;27;20431;-79
2022/01/19 02:59:32;;;;;;;63.05;32.30;;;;;;;;;;5114817;27;20027;-79
2022/01/19 03:10:09;;;;;;;37.13;18.58;;;;;;;;;;5116095;27;20121;-79
2022/01/19 03:12:35;;;;;;;45.92;20.05;;;;;;;;;;5116679;27;20114;-79
2022/01/19 03:15:00;;;;;;;45.88;22.45;;;;;;;;;;5114507;27;20019;-79
2022/01/19 03:17:26;;;;;;;41.13;19.70;;;;;;;;;;5114561;27;20031;-79
2022/01/19 03:19:51;;;;;;;32.83;16.55;;;;;;;;;;5101840;27;20023;-80
2022/01/19 03:22:19;;;;;;;36.45;16.63;;;;;;;;;;5097382;28;20023;-80
2022/01/19 03:24:50;;;;;;;61.28;28.25;;;;;;;;;;5111697;27;20386;-79
2022/01/19 03:27:16;;;;;;;61.53;27.02;;;;;;;;;;5115418;27;20125;-81
2022/01/19 03:29:41;;;;;;;57.13;26.65;;;;;;;;;;5116092;27;20058;-80
2022/01/19 03:32:07;;;;;;;40.35;19.02;;;;;;;;;;5116399;27;20035;-81
2022/01/19 03:34:32;;;;;;;46.53;22.17;;;;;;;;;;5099222;27;20028;-78
2022/01/19 03:36:57;;;;;;;37.97;15.43;;;;;;;;;;5100642;27;20027;-80
2022/01/19 03:39:23;;;;;;;44.30;22.45;;;;;;;;;;5114505;27;20080;-79
2022/01/19 03:41:49;;;;;;;34.63;16.17;;;;;;;;;;5115854;27;20030;-78
2022/01/19 03:44:14;;;;;;;65.93;26.70;;;;;;;;;;5114395;27;20454;-78
2022/01/19 03:46:53;;;;;;;107.18;46.72;;;;;;;;;;5114562;28;20023;-78
2022/01/19 03:49:24;;;;;;;84.18;36.00;;;;;;;;;;5114261;28;20033;-79
2022/01/19 03:51:49;;;;;;;52.22;24.55;;;;;;;;;;5115805;27;20023;-78
2022/01/19 03:54:14;;;;;;;67.75;27.55;;;;;;;;;;5114184;28;20117;-78
2022/01/19 03:56:40;;;;;;;81.40;34.63;;;;;;;;;;5113990;28;20023;-78
2022/01/19 03:59:05;;;;;;;36.25;17.67;;;;;;;;;;5114215;28;20023;-80
2022/01/19 04:01:31;;;;;;;41.28;17.45;;;;;;;;;;5114412;28;20027;-80
2022/01/19 04:06:26;;;;;;;61.97;27.13;;;;;;;;;;5115861;28;20458;-79
2022/01/19 04:08:51;;;;;;;53.75;24.30;;;;;;;;;;5113762;28;20020;-79
2022/01/19 04:11:19;;;;;;;49.03;18.55;;;;;;;;;;5114042;28;20191;-79
2022/01/19 04:16:21;;;;;;;37.63;16.33;;;;;;;;;;5115583;27;20423;-79
2022/01/19 04:18:47;;;;;;;30.05;15.43;;;;;;;;;;5116214;27;20023;-79
2022/01/19 04:21:13;;;;;;;29.83;15.38;;;;;;;;;;5120498;27;20798;-79
2022/01/19 04:23:39;;;;;;;37.03;19.30;;;;;;;;;;5119648;27;20115;-79
2022/01/19 04:26:05;;;;;;;43.63;20.35;;;;;;;;;;5118100;27;20034;-79
2022/01/19 04:28:30;;;;;;;40.08;21.27;;;;;;;;;;5118397;27;20060;-79
2022/01/19 04:30:55;;;;;;;38.30;19.05;;;;;;;;;;5118640;27;20011;-79
2022/01/19 04:33:24;;;;;;;43.25;20.02;;;;;;;;;;5120105;27;20038;-79
2022/01/19 04:35:52;;;;;;;42.13;19.70;;;;;;;;;;5118834;27;20058;-80
2022/01/19 04:54:06;;;;;;;47.22;23.45;;;;;;;;;;5119533;27;20076;-79
2022/01/19 05:02:43;;;;;;;102.97;42.72;;;;;;;;;;5118880;27;20029;-79
2022/01/19 05:05:18;;;;;;;54.55;23.98;;;;;;;;;;5117948;27;20548;-79
2022/01/19 05:15:42;;;;;;;72.70;30.10;;;;;;;;;;5118379;27;20072;-79
2022/01/19 05:18:08;;;;;;;47.17;25.13;;;;;;;;;;5116697;27;20023;-78
2022/01/19 05:20:34;;;;;;;98.32;46.00;;;;;;;;;;5118424;27;20055;-78
2022/01/19 05:22:59;;;;;;;231.70;98.47;;;;;;;;;;5117155;27;20114;-79
2022/01/19 05:25:24;;;;;;;229.88;92.00;;;;;;;;;;5119055;27;20419;-78
2022/01/19 05:27:50;;;;;;;174.35;76.45;;;;;;;;;;5116273;27;20179;-78
2022/01/19 05:30:17;;;;;;;267.02;112.32;;;;;;;;;;5117900;27;20015;-80
2022/01/19 05:32:43;;;;;;;270.35;102.78;;;;;;;;;;5115723;27;20019;-79
2022/01/19 05:35:08;;;;;;;179.75;72.05;;;;;;;;;;5116782;27;20037;-79
2022/01/19 05:37:36;;;;;;;137.32;58.20;;;;;;;;;;5097914;28;20390;-78
2022/01/19 05:40:06;;;;;;;147.35;63.58;;;;;;;;;;5097043;28;20026;-79
2022/01/19 05:42:31;;;;;;;157.60;68.78;;;;;;;;;;5097488;28;20011;-79
2022/01/19 05:44:57;;;;;;;165.05;73.07;;;;;;;;;;5097534;28;20093;-78
2022/01/19 05:47:22;;;;;;;171.82;75.32;;;;;;;;;;5095829;28;20020;-78
2022/01/19 05:49:47;;;;;;;156.02;73.80;;;;;;;;;;5097209;28;20030;-78
2022/01/19 05:52:13;;;;;;;153.35;70.90;;;;;;;;;;5098154;28;20027;-80
2022/01/19 05:54:38;;;;;;;118.18;53.92;;;;;;;;;;5095587;28;20054;-77
2022/01/19 05:57:04;;;;;;;113.82;53.40;;;;;;;;;;5095691;28;20039;-79
2022/01/19 05:59:29;;;;;;;100.95;47.40;;;;;;;;;;5097077;28;20115;-79
2022/01/19 06:01:55;;;;;;;185.10;85.88;;;;;;;;;;5095708;28;20029;-79
2022/01/19 06:04:21;;;;;;;161.85;75.35;;;;;;;;;;5096215;28;20023;-78
2022/01/19 06:06:49;;;;;;;152.75;74.63;;;;;;;;;;5095543;28;20378;-78
2022/01/19 06:11:58;;;;;;;52.53;26.08;;;;;;;;;;5102027;27;20131;-78
2022/01/19 06:14:23;;;;;;;52.58;27.70;;;;;;;;;;5116315;27;20051;-79
2022/01/19 06:16:49;;;;;;;99.13;53.55;;;;;;;;;;5097969;27;20035;-78
2022/01/19 06:19:18;;;;;;;137.50;67.40;;;;;;;;;;5096909;28;20089;-77
2022/01/19 06:21:43;;;;;;;84.28;48.28;;;;;;;;;;5095664;28;20024;-77
2022/01/19 06:24:08;;;;;;;110.53;57.05;;;;;;;;;;5096977;28;20072;-77
2022/01/19 06:26:35;;;;;;;104.97;51.70;;;;;;;;;;5100416;27;20521;-78
2022/01/19 06:29:01;;;;;;;110.30;53.90;;;;;;;;;;5117245;27;20570;-79
2022/01/19 06:31:37;;;;;;;108.60;56.65;;;;;;;;;;5116128;27;20031;-80
2022/01/19 06:34:02;;;;;;;96.00;46.95;;;;;;;;;;5116875;27;20076;-79
2022/01/19 06:36:28;;;;;;;96.55;45.80;;;;;;;;;;5116284;27;20027;-78
2022/01/19 06:38:53;;;;;;;177.55;87.10;;;;;;;;;;5116521;27;20027;-77
2022/01/19 06:41:18;;;;;;;130.85;61.72;;;;;;;;;;5115463;27;20449;-79
2022/01/19 06:43:44;;;;;;;110.57;60.00;;;;;;;;;;5115705;27;20061;-77
2022/01/19 06:46:09;;;;;;;114.28;57.83;;;;;;;;;;5115155;27;20027;-76
2022/01/19 06:48:34;;;;;;;207.93;91.82;;;;;;;;;;5115971;27;20023;-77
2022/01/19 06:51:00;;;;;;;113.00;55.85;;;;;;;;;;5116598;27;20023;-75
2022/01/19 06:53:26;;;;;;;102.35;52.05;;;;;;;;;;5114891;27;20026;-77
2022/01/19 06:55:52;;;;;;;108.88;55.38;;;;;;;;;;5103666;27;20031;-76
2022/01/19 06:58:17;;;;;;;157.93;68.68;;;;;;;;;;5112357;27;20019;-77
2022/01/19 07:00:42;;;;;;;159.55;75.70;;;;;;;;;;5115187;27;20134;-75
2022/01/19 07:03:09;;;;;;;127.22;70.13;;;;;;;;;;5114896;27;20062;-79
2022/01/19 07:05:34;;;;;;;152.70;82.07;;;;;;;;;;5114820;27;20027;-75
2022/01/19 07:07:59;;;;;;;152.60;87.15;;;;;;;;;;5116681;27;20041;-76
2022/01/19 07:10:25;;;;;;;165.20;88.88;;;;;;;;;;5114854;27;20019;-78
2022/01/19 07:12:50;;;;;;;218.88;114.45;;;;;;;;;;5115930;27;20068;-76
2022/01/19 07:15:16;;;;;;;271.02;144.73;;;;;;;;;;5114391;27;20410;-79
2022/01/19 07:17:41;;;;;;;342.55;188.95;;;;;;;;;;5116228;27;20084;-76
2022/01/19 07:20:07;;;;;;;347.92;188.80;;;;;;;;;;5115980;27;20027;-76
2022/01/19 07:22:32;;;;;;;345.25;184.07;;;;;;;;;;5116438;27;20015;-78
2022/01/19 07:24:59;;;;;;;341.95;178.23;;;;;;;;;;5111290;27;20023;-77
2022/01/19 07:27:24;;;;;;;283.52;144.07;;;;;;;;;;5116688;27;20015;-77
2022/01/19 07:29:50;;;;;;;208.05;110.70;;;;;;;;;;5114495;27;20017;-76
2022/01/19 07:32:15;;;;;;;244.50;130.85;;;;;;;;;;5116811;27;20536;-75
2022/01/19 07:34:40;;;;;;;228.25;114.13;;;;;;;;;;5113102;27;20031;-75
2022/01/19 07:37:06;;;;;;;235.48;117.53;;;;;;;;;;5056550;27;20056;-75
2022/01/19 07:39:31;;;;;;;270.63;128.35;;;;;;;;;;5032163;28;20272;-75
2022/01/19 07:41:57;;;;;;;209.05;105.03;;;;;;;;;;5034593;28;20021;-74
2022/01/19 07:44:23;;;;;;;325.27;155.00;;;;;;;;;;5035182;28;20049;-75
2022/01/19 07:46:48;;;;;;;180.00;88.10;;;;;;;;;;5033609;28;20126;-76
2022/01/19 07:49:14;;;;;;;226.60;110.90;;;;;;;;;;5035308;28;20025;-76
2022/01/19 07:51:40;;;;;;;133.75;67.95;;;;;;;;;;5054218;28;20028;-78
2022/01/19 07:54:05;;;;;;;105.90;53.85;;;;;;;;;;5054525;28;20024;-77
2022/01/19 07:56:30;;;;;;;122.40;67.13;;;;;;;;;;5059628;28;20107;-77
2022/01/19 07:58:56;;;;;;;139.88;75.63;;;;;;;;;;5057731;28;20032;-78
2022/01/19 08:01:22;;;;;;;148.05;80.05;;;;;;;;;;5059512;28;20029;-78
2022/01/19 08:03:47;;;;;;;131.93;72.15;;;;;;;;;;5058928;28;20035;-76
2022/01/19 08:06:13;;;;;;;147.32;82.85;;;;;;;;;;5058492;28;20379;-77
2022/01/19 08:08:38;;;;;;;103.88;55.65;;;;;;;;;;5051843;28;20021;-77
2022/01/19 08:11:03;;;;;;;180.80;119.38;;;;;;;;;;5038790;28;20025;-77
2022/01/19 08:13:29;;;;;;;169.20;103.25;;;;;;;;;;5037063;28;20053;-78
2022/01/19 08:15:54;;;;;;;72.00;43.92;;;;;;;;;;5036675;28;20025;-76
2022/01/19 08:18:19;;;;;;;128.38;73.30;;;;;;;;;;5038495;28;20060;-76
2022/01/19 08:20:45;;;;;;;84.28;50.60;;;;;;;;;;5038602;28;20568;-78
2022/01/19 08:23:10;;;;;;;74.32;42.90;;;;;;;;;;5037252;28;20048;-78
2022/01/19 08:25:36;;;;;;;63.22;39.05;;;;;;;;;;5036890;28;20157;-77
2022/01/19 08:28:01;;;;;;;82.22;45.63;;;;;;;;;;5038283;28;20407;-75
2022/01/19 08:30:27;;;;;;;59.92;36.22;;;;;;;;;;5036998;28;20060;-76
2022/01/19 08:32:52;;;;;;;92.75;48.92;;;;;;;;;;5058327;28;20025;-78
2022/01/19 08:35:17;;;;;;;162.02;70.90;;;;;;;;;;5058349;28;20178;-78
2022/01/19 08:37:43;;;;;;;201.63;91.03;;;;;;;;;;5056585;28;20025;-78
2022/01/19 08:40:09;;;;;;;242.30;100.20;;;;;;;;;;5056394;28;20642;-79
2022/01/19 08:42:36;;;;;;;237.88;96.78;;;;;;;;;;5056283;28;20058;-79
2022/01/19 08:45:05;;;;;;;126.70;69.43;;;;;;;;;;5058082;28;20452;-78
2022/01/19 08:47:31;;;;;;;104.70;64.68;;;;;;;;;;5056719;28;20364;-78
2022/01/19 08:49:56;;;;;;;98.90;48.53;;;;;;;;;;5057885;28;20029;-78
2022/01/19 08:52:22;;;;;;;132.43;58.45;;;;;;;;;;5056315;28;20344;-78
2022/01/19 08:54:47;;;;;;;161.95;74.07;;;;;;;;;;5057398;28;20031;-79
2022/01/19 08:57:13;;;;;;;70.30;34.67;;;;;;;;;;5057675;28;20515;-79
2022/01/19 08:59:38;;;;;;;73.25;42.95;;;;;;;;;;5055931;28;20024;-78
2022/01/19 09:02:06;;;;;;;102.05;55.67;;;;;;;;;;5057674;28;20020;-76
2022/01/19 09:04:31;;;;;;;67.28;36.75;;;;;;;;;;5057600;28;20020;-76
2022/01/19 09:06:58;;;;;;;83.93;49.97;;;;;;;;;;5057428;28;20078;-76
2022/01/19 09:09:24;;;;;;;130.13;71.57;;;;;;;;;;5057325;28;20047;-76
2022/01/19 09:11:49;;;;;;;143.38;69.82;;;;;;;;;;5056589;28;20488;-76
2022/01/19 09:14:14;;;;;;;195.93;96.85;;;;;;;;;;5053013;28;20024;-74
2022/01/19 09:16:40;;;;;;;61.22;33.60;;;;;;;;;;5036287;28;20091;-76
2022/01/19 09:19:12;;;;;;;177.60;91.13;;;;;;;;;;5035937;28;20054;-79
2022/01/19 09:21:37;;;;;;;52.60;29.20;;;;;;;;;;5046619;28;20047;-79
2022/01/19 09:24:03;;;;;;;58.72;32.03;;;;;;;;;;5036410;28;20113;-78
2022/01/19 09:26:29;;;;;;;64.78;37.00;;;;;;;;;;5035828;28;20029;-78
2022/01/19 09:28:54;;;;;;;75.30;38.90;;;;;;;;;;5035554;28;20502;-79
2022/01/19 09:31:20;;;;;;;83.05;43.33;;;;;;;;;;5041934;28;20686;-77
2022/01/19 09:33:54;;;;;;;58.80;34.13;;;;;;;;;;5055242;28;20036;-77
2022/01/19 09:36:31;;;;;;;54.33;29.98;;;;;;;;;;5057135;28;20035;-78
2022/01/19 09:38:57;;;;;;;123.85;67.32;;;;;;;;;;5056468;28;20486;-79
2022/01/19 09:41:22;;;;;;;69.78;37.03;;;;;;;;;;5055255;28;20526;-79
2022/01/19 09:43:48;;;;;;;80.70;41.97;;;;;;;;;;5055287;28;20851;-79
2022/01/19 09:46:13;;;;;;;56.08;25.67;;;;;;;;;;5056096;28;20030;-79
2022/01/19 09:48:40;;;;;;;38.58;20.23;;;;;;;;;;5056729;28;20020;-79
2022/01/19 09:51:05;;;;;;;41.17;18.52;;;;;;;;;;5055238;28;20012;-79
2022/01/19 09:53:31;;;;;;;34.80;16.55;;;;;;;;;;5056805;28;20470;-78
2022/01/19 09:55:56;;;;;;;41.75;20.15;;;;;;;;;;5056507;28;20035;-77
2022/01/19 09:58:22;;;;;;;40.97;20.27;;;;;;;;;;5057048;28;20020;-79
2022/01/19 10:00:47;;;;;;;35.35;16.23;;;;;;;;;;5054868;28;20252;-81
2022/01/19 10:03:23;;;;;;;27.85;15.88;;;;;;;;;;5056293;28;20078;-79
2022/01/19 10:06:03;;;;;;;39.47;18.77;;;;;;;;;;5039477;28;20037;-79
2022/01/19 10:08:33;;;;;;;22.85;9.30;;;;;;;;;;5037154;28;20045;-81
2022/01/19 10:11:04;;;;;;;24.42;11.75;;;;;;;;;;5036410;28;20502;-78
2022/01/19 10:19:16;;;;;;;22.80;10.10;;;;;;;;;;5036440;28;20094;-79
2022/01/19 10:22:02;;;;;;;31.90;14.45;;;;;;;;;;5038299;28;20021;-79
2022/01/19 10:24:36;;;;;;;25.98;11.45;;;;;;;;;;5043118;28;20490;-78
2022/01/19 10:27:34;;;;;;;30.25;17.50;;;;;;;;;;5056167;28;20016;-77
2022/01/19 10:30:02;;;;;;;55.80;29.08;;;;;;;;;;5022531;28;20107;-77
2022/01/19 10:32:29;;;;;;;66.50;37.75;;;;;;;;;;5055803;28;20390;-77
2022/01/19 10:34:54;;;;;;;47.92;24.05;;;;;;;;;;5055982;28;20111;-77
2022/01/19 10:37:37;;;;;;;40.85;20.08;;;;;;;;;;5056027;28;20103;-77
2022/01/19 10:40:03;;;;;;;41.55;20.00;;;;;;;;;;5055984;28;20032;-77
2022/01/19 10:42:31;;;;;;;28.63;13.43;;;;;;;;;;5055885;28;20372;-78
2022/01/19 10:45:15;;;;;;;35.08;17.80;;;;;;;;;;5054509;28;20028;-78
2022/01/19 10:47:53;;;;;;;45.08;19.27;;;;;;;;;;5055876;28;20376;-78
2022/01/19 10:50:21;;;;;;;25.45;12.70;;;;;;;;;;5056251;28;20099;-78
2022/01/19 10:52:46;;;;;;;19.45;9.73;;;;;;;;;;5055629;28;20029;-77
2022/01/19 10:55:13;;;;;;;30.63;15.55;;;;;;;;;;5055699;28;20379;-77
2022/01/19 10:57:40;;;;;;;31.65;16.10;;;;;;;;;;5055451;28;20024;-78
2022/01/19 11:00:20;;;;;;;19.92;10.68;;;;;;;;;;5054158;28;20021;-78
2022/01/19 11:02:47;;;;;;;28.42;15.77;;;;;;;;;;5055320;28;20031;-79
2022/01/19 11:05:12;;;;;;;21.77;10.75;;;;;;;;;;5055437;28;20082;-78
2022/01/19 11:07:38;;;;;;;36.83;18.10;;;;;;;;;;5056434;28;20028;-79
2022/01/19 11:12:39;;;;;;;22.95;11.90;;;;;;;;;;5055240;28;20073;-78
2022/01/19 11:15:05;;;;;;;103.22;39.13;;;;;;;;;;5055095;28;20119;-79
2022/01/19 11:17:30;;;;;;;68.13;28.10;;;;;;;;;;5053229;28;20147;-78
2022/01/19 11:19:55;;;;;;;27.48;14.75;;;;;;;;;;5053773;28;20036;-78
2022/01/19 11:22:27;;;;;;;31.25;16.25;;;;;;;;;;5054943;28;20024;-76
2022/01/19 11:24:55;;;;;;;38.70;18.67;;;;;;;;;;5053452;28;20029;-77
2022/01/19 11:27:22;;;;;;;70.45;32.85;;;;;;;;;;5052274;28;20028;-77
2022/01/19 11:30:06;;;;;;;159.00;83.95;;;;;;;;;;5044333;28;20506;-78
2022/01/19 11:32:32;;;;;;;135.75;57.20;;;;;;;;;;5050492;28;20446;-78
2022/01/19 11:34:57;;;;;;;82.25;41.05;;;;;;;;;;5054782;28;20154;-78
2022/01/19 11:37:37;;;;;;;54.15;26.00;;;;;;;;;;5054718;28;20418;-78
2022/01/19 11:40:08;;;;;;;51.60;21.25;;;;;;;;;;5054923;28;20024;-78
2022/01/19 11:42:33;;;;;;;35.63;16.00;;;;;;;;;;5054882;28;20475;-78
2022/01/19 11:44:59;;;;;;;37.85;19.77;;;;;;;;;;5053525;28;20029;-77
2022/01/19 11:47:28;;;;;;;63.33;32.30;;;;;;;;;;5054992;28;20035;-77
2022/01/19 11:49:56;;;;;;;52.83;25.52;;;;;;;;;;5055041;28;20330;-77
2022/01/19 11:52:25;;;;;;;22.15;11.60;;;;;;;;;;5055214;28;20127;-76
2022/01/19 11:54:51;;;;;;;46.70;22.57;;;;;;;;;;5054324;28;20483;-75
2022/01/19 11:57:18;;;;;;;26.85;14.55;;;;;;;;;;5047980;28;20017;-78
2022/01/19 11:59:43;;;;;;;18.98;10.68;;;;;;;;;;5048990;28;20108;-77
2022/01/19 12:02:21;;;;;;;23.35;11.32;;;;;;;;;;5044933;28;20131;-78
2022/01/19 12:05:07;;;;;;;24.25;13.70;;;;;;;;;;5052392;28;20047;-78
2022/01/19 12:07:35;;;;;;;24.80;13.27;;;;;;;;;;5056500;28;20033;-77
2022/01/19 12:10:01;;;;;;;25.17;11.50;;;;;;;;;;5053970;28;20090;-74
2022/01/19 12:12:32;;;;;;;23.00;10.52;;;;;;;;;;5052686;28;20483;-77
2022/01/19 12:14:57;;;;;;;31.23;13.02;;;;;;;;;;5054924;28;20032;-75
2022/01/19 12:17:27;;;;;;;48.75;30.38;;;;;;;;;;5052866;28;20123;-78
2022/01/19 12:19:53;;;;;;;27.13;15.75;;;;;;;;;;5054692;28;20016;-76
2022/01/19 12:22:20;;;;;;;25.20;11.95;;;;;;;;;;5051356;28;20025;-76
2022/01/19 12:24:59;;;;;;;27.95;11.10;;;;;;;;;;5053291;28;20056;-76
2022/01/19 12:27:34;;;;;;;26.33;12.00;;;;;;;;;;5054852;28;20024;-77
2022/01/19 12:30:03;;;;;;;25.20;9.77;;;;;;;;;;5053278;28;20405;-77
2022/01/19 12:32:28;;;;;;;35.92;14.70;;;;;;;;;;5045349;28;20113;-74
2022/01/19 12:34:55;;;;;;;26.30;12.23;;;;;;;;;;5033337;28;20131;-76
2022/01/19 12:37:27;;;;;;;25.15;11.10;;;;;;;;;;5034251;28;20039;-76
2022/01/19 12:39:53;;;;;;;27.25;12.95;;;;;;;;;;5038705;28;20071;-76
2022/01/19 12:42:23;;;;;;;29.35;14.43;;;;;;;;;;5046295;28;20025;-76
2022/01/19 12:44:53;;;;;;;31.02;15.60;;;;;;;;;;5047602;28;20052;-77
2022/01/19 12:47:24;;;;;;;79.57;47.10;;;;;;;;;;5044287;28;20179;-76
2022/01/19 12:49:50;;;;;;;74.57;43.58;;;;;;;;;;5045934;28;20056;-76
2022/01/19 12:52:16;;;;;;;47.35;25.35;;;;;;;;;;5044161;28;20024;-76
2022/01/19 12:54:41;;;;;;;72.00;37.63;;;;;;;;;;5047560;28;20020;-76
2022/01/19 12:57:09;;;;;;;55.95;27.90;;;;;;;;;;5046807;28;20434;-75
2022/01/19 12:59:36;;;;;;;41.70;26.17;;;;;;;;;;5035472;28;20028;-78
2022/01/19 13:02:03;;;;;;;28.35;14.82;;;;;;;;;;5045155;28;20021;-78
2022/01/19 13:04:33;;;;;;;21.73;11.40;;;;;;;;;;5048981;28;20111;-78
2022/01/19 13:07:20;;;;;;;19.25;11.55;;;;;;;;;;5049932;28;20044;-76
2022/01/19 13:10:27;;;;;;;27.85;14.10;;;;;;;;;;5042327;28;20588;-78
2022/01/19 13:15:58;;;;;;;62.75;26.08;;;;;;;;;;5046942;28;20652;-78
2022/01/19 13:18:31;;;;;;;45.17;22.35;;;;;;;;;;5002465;28;20794;-77
2022/01/19 13:20:58;;;;;;;23.55;13.77;;;;;;;;;;5035261;28;20032;-77
2022/01/19 13:23:24;;;;;;;20.80;11.70;;;;;;;;;;5035253;28;20048;-77
2022/01/19 13:25:56;;;;;;;20.60;10.70;;;;;;;;;;5039377;28;20466;-76
2022/01/19 13:28:26;;;;;;;42.88;27.25;;;;;;;;;;5039478;28;20021;-79
2022/01/19 13:30:51;;;;;;;37.40;17.52;;;;;;;;;;5038596;28;20008;-79
2022/01/19 13:33:17;;;;;;;31.17;18.80;;;;;;;;;;5055747;28;20108;-76
2022/01/19 13:35:42;;;;;;;31.65;17.13;;;;;;;;;;5054463;28;20147;-77
2022/01/19 13:38:11;;;;;;;20.60;14.00;;;;;;;;;;5049942;28;20548;-78
2022/01/19 13:40:37;;;;;;;35.55;21.35;;;;;;;;;;5041247;28;20024;-76
2022/01/19 13:43:04;;;;;;;27.15;14.27;;;;;;;;;;5043684;28;20500;-76
2022/01/19 13:45:47;;;;;;;30.90;18.40;;;;;;;;;;5042753;28;20025;-79
2022/01/19 13:50:44;;;;;;;31.17;16.40;;;;;;;;;;5046171;28;20024;-78
2022/01/19 13:53:10;;;;;;;36.92;18.42;;;;;;;;;;5044914;28;20031;-78
2022/01/19 13:55:36;;;;;;;32.28;19.63;;;;;;;;;;5042553;28;20025;-77
2022/01/19 13:58:05;;;;;;;25.27;14.50;;;;;;;;;;5042678;28;20024;-78
2022/01/19 14:00:31;;;;;;;41.45;22.73;;;;;;;;;;5046831;28;20027;-78
2022/01/19 14:02:59;;;;;;;32.75;16.73;;;;;;;;;;5045541;28;20383;-77
2022/01/19 14:05:34;;;;;;;36.10;20.10;;;;;;;;;;5044875;28;20021;-78
2022/01/19 14:08:09;;;;;;;43.72;21.05;;;;;;;;;;5051735;28;20017;-77
2022/01/19 14:10:38;;;;;;;39.88;21.92;;;;;;;;;;5038907;28;20035;-78
2022/01/19 14:13:22;;;;;;;36.28;21.50;;;;;;;;;;5044522;28;20122;-79
2022/01/19 14:15:47;;;;;;;33.03;18.60;;;;;;;;;;5047799;28;20039;-77
2022/01/19 14:18:13;;;;;;;45.92;25.40;;;;;;;;;;5053884;28;20032;-77
2022/01/19 14:20:38;;;;;;;37.58;22.08;;;;;;;;;;5053811;28;20519;-76
2022/01/19 14:23:12;;;;;;;30.08;16.67;;;;;;;;;;5055059;28;20602;-76
2022/01/19 14:25:38;;;;;;;23.23;13.90;;;;;;;;;;5052871;28;20689;-76
2022/01/19 14:28:12;;;;;;;36.38;21.48;;;;;;;;;;5053940;28;20077;-77
2022/01/19 14:30:37;;;;;;;43.88;20.42;;;;;;;;;;5053319;28;20020;-76
2022/01/19 14:33:10;;;;;;;59.58;28.65;;;;;;;;;;5052476;28;20491;-77
2022/01/19 14:35:36;;;;;;;60.60;28.45;;;;;;;;;;5038131;28;20021;-76
2022/01/19 14:38:07;;;;;;;50.85;24.00;;;;;;;;;;5035856;28;20400;-76
2022/01/19 14:40:35;;;;;;;48.40;25.17;;;;;;;;;;5033744;28;20026;-75
2022/01/19 14:43:00;;;;;;;58.75;30.13;;;;;;;;;;5035569;28;20025;-75
2022/01/19 14:45:35;;;;;;;48.92;24.25;;;;;;;;;;5034505;28;20090;-76
2022/01/19 14:48:10;;;;;;;36.38;19.13;;;;;;;;;;5034259;28;20023;-76
2022/01/19 14:50:36;;;;;;;59.25;34.55;;;;;;;;;;5035786;28;20029;-77
2022/01/19 14:53:02;;;;;;;100.30;59.75;;;;;;;;;;5034300;28;20221;-78
2022/01/19 14:55:29;;;;;;;67.18;39.42;;;;;;;;;;5050578;28;20486;-77
2022/01/19 14:57:55;;;;;;;60.53;34.25;;;;;;;;;;5054130;28;20600;-77
2022/01/19 15:00:22;;;;;;;127.78;76.05;;;;;;;;;;5055431;28;20021;-75
2022/01/19 15:02:57;;;;;;;89.18;52.58;;;;;;;;;;5053923;28;20044;-76
2022/01/19 15:05:23;;;;;;;70.80;43.00;;;;;;;;;;5055352;28;20039;-76
2022/01/19 15:07:48;;;;;;;141.32;76.68;;;;;;;;;;5055384;28;20024;-76
2022/01/19 15:10:14;;;;;;;154.82;86.13;;;;;;;;;;5052373;28;20041;-78
2022/01/19 15:12:39;;;;;;;85.95;50.85;;;;;;;;;;5037099;28;20057;-77
2022/01/19 15:15:05;;;;;;;50.25;33.85;;;;;;;;;;5033915;28;20029;-78
2022/01/19 15:17:31;;;;;;;49.45;30.48;;;;;;;;;;5033923;28;20387;-76
2022/01/19 15:19:56;;;;;;;32.05;20.80;;;;;;;;;;5036236;28;20024;-76
2022/01/19 15:22:22;;;;;;;38.95;24.30;;;;;;;;;;5055149;28;20033;-75
2022/01/19 15:24:48;;;;;;;31.65;20.75;;;;;;;;;;5050456;28;20032;-76
2022/01/19 15:27:13;;;;;;;42.85;22.65;;;;;;;;;;5048010;28;20024;-76
2022/01/19 15:29:39;;;;;;;163.38;61.10;;;;;;;;;;5055233;28;20024;-76
2022/01/19 15:32:04;;;;;;;157.52;57.90;;;;;;;;;;5055451;28;20456;-77
2022/01/19 15:34:29;;;;;;;160.10;59.42;;;;;;;;;;5050863;28;20480;-76
2022/01/19 15:36:55;;;;;;;269.67;90.03;;;;;;;;;;5052391;28;20028;-76
2022/01/19 15:39:20;;;;;;;261.25;95.20;;;;;;;;;;5051262;28;20467;-79
2022/01/19 15:41:46;;;;;;;244.18;91.80;;;;;;;;;;5054302;28;20459;-78
2022/01/19 15:44:11;;;;;;;124.00;52.05;;;;;;;;;;5054636;28;20364;-78
2022/01/19 15:46:36;;;;;;;364.00;144.55;;;;;;;;;;5049990;28;20025;-79
2022/01/19 15:49:02;;;;;;;152.18;59.50;;;;;;;;;;5051388;28;20021;-79